createdAt,value
2022-12-18T01:53:25.400Z,4.07
2022-12-18T01:55:55.328Z,4.43
2022-12-18T01:58:29.813Z,3.78
2022-12-18T02:00:57.918Z,3.90
2022-12-18T02:03:25.635Z,5.80
2022-12-18T02:06:05.744Z,4.40
2022-12-18T02:08:42.864Z,4.68
2022-12-18T02:11:17.304Z,5.05
2022-12-18T02:13:54.192Z,4.88
2022-12-18T02:16:30.706Z,4.50
2022-12-18T02:19:01.802Z,5.25
2022-12-18T02:21:37.810Z,4.35
2022-12-18T02:24:18.860Z,4.70
2022-12-18T02:26:51.544Z,4.35
2022-12-18T02:29:23.940Z,4.90
2022-12-18T02:31:55.477Z,4.93
2022-12-18T02:34:27.051Z,4.63
2022-12-18T02:36:56.801Z,4.50
2022-12-18T02:39:30.224Z,5.00
2022-12-18T02:42:08.655Z,4.93
2022-12-18T02:44:42.571Z,4.97
2022-12-18T02:47:12.402Z,5.70
2022-12-18T02:49:50.253Z,5.40
2022-12-18T02:52:26.868Z,4.95
2022-12-18T02:55:06.528Z,5.75
2022-12-18T02:57:43.583Z,5.85
2022-12-18T03:00:14.584Z,5.90
2022-12-18T03:02:48.554Z,5.53
2022-12-18T03:05:20.505Z,6.05
2022-12-18T03:07:54.735Z,6.90
2022-12-18T03:10:28.392Z,6.68
2022-12-18T03:13:03.152Z,6.15
2022-12-18T03:15:36.189Z,7.28
2022-12-18T03:18:10.185Z,6.85
2022-12-18T03:20:40.849Z,7.28
2022-12-18T03:23:12.926Z,7.65
2022-12-18T03:25:42.965Z,6.78
2022-12-18T03:28:15.961Z,7.68
2022-12-18T03:30:47.132Z,7.35
2022-12-18T03:33:20.070Z,6.85
2022-12-18T03:35:47.946Z,7.97
2022-12-18T03:38:15.610Z,7.47
2022-12-18T03:40:58.166Z,8.18
2022-12-18T03:43:40.077Z,7.57
2022-12-18T03:46:15.646Z,7.25
2022-12-18T03:48:49.394Z,7.50
2022-12-18T03:51:23.703Z,7.93
2022-12-18T03:53:56.950Z,7.30
2022-12-18T03:56:26.676Z,7.05
2022-12-18T03:58:58.690Z,9.07
2022-12-18T04:01:32.012Z,7.68
2022-12-18T04:04:02.278Z,7.88
2022-12-18T04:06:34.011Z,8.05
2022-12-18T04:09:01.914Z,8.30
2022-12-18T04:11:29.625Z,9.23
2022-12-18T04:13:59.745Z,9.85
2022-12-18T04:16:28.126Z,11.32
2022-12-18T04:18:55.739Z,9.57
2022-12-18T04:21:25.042Z,9.95
2022-12-18T04:23:52.823Z,9.07
2022-12-18T04:26:20.614Z,9.63
2022-12-18T04:28:48.389Z,9.48
2022-12-18T04:31:17.602Z,8.60
2022-12-18T04:33:45.234Z,9.38
2022-12-18T04:36:13.084Z,10.40
2022-12-18T04:38:41.054Z,11.70
2022-12-18T04:41:08.718Z,11.68
2022-12-18T04:43:37.263Z,12.02
2022-12-18T04:46:06.489Z,11.13
2022-12-18T04:48:36.365Z,9.80
2022-12-18T04:51:04.895Z,11.70
2022-12-18T04:53:33.000Z,10.77
2022-12-18T04:56:05.616Z,10.95
2022-12-18T04:58:33.351Z,10.68
2022-12-18T05:01:02.462Z,10.95
2022-12-18T05:03:30.809Z,10.52
2022-12-18T05:06:14.774Z,11.27
2022-12-18T05:08:42.601Z,10.55
2022-12-18T05:11:15.675Z,11.35
2022-12-18T05:13:44.264Z,10.25
2022-12-18T05:16:13.399Z,11.43
2022-12-18T05:18:41.981Z,10.63
2022-12-18T05:21:10.125Z,11.15
2022-12-18T05:23:40.744Z,11.35
2022-12-18T05:26:09.609Z,12.50
2022-12-18T05:28:37.896Z,13.70
2022-12-18T05:31:06.319Z,11.75
2022-12-18T05:33:35.513Z,12.45
2022-12-18T05:36:05.697Z,14.82
2022-12-18T05:38:35.057Z,12.77
2022-12-18T05:41:05.434Z,12.57
2022-12-18T05:43:35.546Z,15.80
2022-12-18T05:46:08.226Z,15.18
2022-12-18T05:48:36.245Z,14.15
2022-12-18T05:51:09.988Z,14.20
2022-12-18T05:53:38.921Z,13.73
2022-12-18T05:56:10.479Z,14.55
2022-12-18T05:58:38.516Z,14.75
2022-12-18T06:01:12.415Z,13.43
2022-12-18T06:03:40.939Z,15.32
2022-12-18T06:06:15.880Z,15.00
2022-12-18T06:08:46.468Z,15.35
2022-12-18T06:11:19.303Z,14.93
2022-12-18T06:13:47.645Z,16.75
2022-12-18T06:16:15.668Z,15.10
2022-12-18T06:21:25.633Z,18.73
2022-12-18T06:23:53.517Z,17.20
2022-12-18T06:26:28.070Z,16.25
2022-12-18T06:28:56.808Z,17.35
2022-12-18T06:31:25.079Z,18.25
2022-12-18T06:33:53.155Z,17.45
2022-12-18T06:36:22.714Z,16.23
2022-12-18T06:38:50.485Z,18.33
2022-12-18T06:41:20.295Z,17.10
2022-12-18T06:43:49.814Z,16.90
2022-12-18T06:46:47.952Z,16.17
2022-12-18T06:49:30.768Z,16.95
2022-12-18T06:52:00.855Z,17.10
2022-12-18T06:54:28.722Z,17.05
2022-12-18T06:56:56.446Z,16.77
2022-12-18T06:59:25.592Z,18.92
2022-12-18T07:01:54.067Z,19.05
2022-12-18T07:04:22.667Z,17.52
2022-12-18T07:06:50.563Z,19.27
2022-12-18T07:09:18.657Z,18.60
2022-12-18T07:14:42.396Z,27.13
2022-12-18T07:17:10.955Z,23.27
2022-12-18T07:19:38.935Z,24.63
2022-12-18T07:22:12.572Z,24.15
2022-12-18T07:24:40.748Z,20.15
2022-12-18T07:27:08.431Z,17.10
2022-12-18T07:29:37.865Z,15.60
2022-12-18T07:32:08.110Z,17.45
2022-12-18T07:34:36.355Z,19.70
2022-12-18T07:37:04.970Z,17.83
2022-12-18T07:39:32.800Z,15.30
2022-12-18T07:42:00.473Z,15.57
2022-12-18T07:44:28.389Z,14.27
2022-12-18T07:46:56.603Z,14.20
2022-12-18T07:49:25.772Z,16.08
2022-12-18T07:51:55.636Z,15.60
2022-12-18T07:54:23.676Z,14.50
2022-12-18T07:56:51.584Z,13.63
2022-12-18T07:59:19.462Z,15.15
2022-12-18T08:01:47.160Z,15.90
2022-12-18T08:04:14.796Z,14.10
2022-12-18T08:06:47.767Z,15.00
2022-12-18T08:09:16.107Z,15.05
2022-12-18T08:11:43.773Z,14.70
2022-12-18T08:14:11.801Z,15.52
2022-12-18T08:16:39.724Z,12.90
2022-12-18T08:19:07.338Z,14.27
2022-12-18T08:21:36.849Z,16.05
2022-12-18T08:24:06.823Z,12.75
2022-12-18T08:26:34.439Z,11.70
2022-12-18T08:29:02.428Z,13.32
2022-12-18T08:31:31.420Z,12.00
2022-12-18T08:33:59.640Z,12.98
2022-12-18T08:36:27.405Z,12.63
2022-12-18T10:59:57.100Z,11.18
2022-12-18T11:02:36.926Z,10.85
2022-12-18T11:48:39.432Z,9.55
2022-12-18T11:51:13.915Z,10.20
2022-12-18T11:56:33.151Z,9.13
2022-12-18T11:59:10.165Z,9.10
2022-12-18T12:02:10.462Z,10.88
2022-12-18T12:05:05.681Z,9.65
2022-12-18T12:07:44.933Z,8.68
2022-12-18T12:10:34.282Z,10.93
2022-12-18T12:13:38.992Z,10.20
2022-12-18T12:16:15.940Z,11.32
2022-12-18T12:19:00.104Z,12.15
2022-12-18T12:21:37.683Z,9.25
2022-12-18T12:24:22.461Z,10.27
2022-12-18T12:27:02.343Z,9.43
2022-12-18T12:29:47.359Z,10.13
2022-12-18T12:32:31.030Z,9.88
2022-12-18T12:35:13.107Z,9.30
2022-12-18T12:37:52.932Z,9.52
2022-12-18T12:43:27.031Z,10.35
2022-12-18T12:45:58.372Z,10.38
2022-12-18T12:48:39.080Z,11.55
2022-12-18T12:51:14.171Z,10.10
2022-12-18T12:53:43.846Z,11.52
2022-12-18T12:56:15.831Z,12.38
2022-12-18T12:58:53.749Z,12.05
2022-12-18T13:01:29.474Z,10.90
2022-12-18T13:04:09.998Z,11.68
2022-12-18T13:09:36.846Z,11.05
2022-12-18T13:12:12.714Z,11.05
2022-12-18T13:14:42.037Z,10.90
2022-12-18T13:17:30.130Z,12.27
2022-12-18T13:20:07.553Z,12.40
2022-12-18T13:22:37.824Z,12.30
2022-12-18T13:25:32.970Z,13.80
2022-12-18T13:28:10.618Z,13.68
2022-12-18T13:30:59.475Z,13.52
2022-12-18T13:34:24.451Z,13.15
2022-12-18T13:36:36.238Z,13.43
2022-12-18T13:42:38.509Z,12.30
2022-12-18T13:48:00.518Z,12.82
2022-12-18T13:50:35.303Z,14.45
2022-12-18T13:53:05.589Z,13.13
2022-12-18T13:55:35.561Z,13.55
2022-12-18T13:58:07.638Z,13.38
2022-12-18T14:00:36.628Z,13.95
2022-12-18T14:03:22.129Z,13.05
2022-12-18T14:06:02.598Z,13.75
2022-12-18T14:08:36.527Z,15.05
2022-12-18T14:11:07.757Z,14.93
2022-12-18T14:13:43.565Z,14.93
2022-12-18T14:16:16.025Z,16.63
2022-12-18T14:18:47.447Z,15.32
2022-12-18T14:21:22.659Z,15.32
2022-12-18T14:24:03.816Z,14.18
2022-12-18T14:26:32.838Z,15.50
2022-12-18T14:29:21.594Z,14.77
2022-12-18T14:32:21.819Z,13.40
2022-12-18T14:34:51.207Z,12.40
2022-12-18T14:37:22.926Z,13.65
2022-12-18T14:42:22.319Z,12.90
2022-12-18T14:45:12.798Z,11.60
2022-12-18T14:47:39.833Z,12.88
2022-12-18T14:50:14.880Z,13.02
2022-12-18T14:52:42.886Z,11.27
2022-12-18T14:55:16.769Z,11.98
2022-12-18T14:57:45.277Z,11.68
2022-12-18T15:00:19.314Z,10.95
2022-12-18T15:02:49.538Z,12.48
2022-12-18T15:05:19.791Z,14.40
2022-12-18T15:07:49.485Z,24.15
2022-12-18T15:10:19.506Z,20.25
2022-12-18T15:12:51.887Z,14.07
2022-12-18T15:15:49.797Z,11.77
2022-12-18T15:18:19.724Z,11.70
2022-12-18T15:20:49.959Z,12.52
2022-12-18T15:31:05.505Z,15.35
2022-12-18T15:33:35.488Z,14.85
2022-12-18T15:36:05.552Z,12.57
2022-12-18T15:38:33.362Z,13.68
2022-12-18T15:41:01.570Z,13.38
2022-12-18T15:43:30.050Z,21.52
2022-12-18T15:45:57.734Z,22.65
2022-12-18T15:48:29.793Z,20.87
2022-12-18T15:50:58.946Z,33.58
2022-12-18T15:53:30.150Z,20.63
2022-12-18T15:56:01.162Z,15.63
2022-12-18T15:58:30.184Z,13.23
2022-12-18T16:01:00.570Z,10.70
2022-12-18T16:03:29.714Z,11.50
2022-12-18T16:05:57.778Z,10.48
2022-12-18T16:08:26.260Z,10.98
2022-12-18T16:10:53.917Z,10.27
2022-12-18T16:13:21.959Z,11.10
2022-12-18T16:15:49.834Z,23.55
2022-12-18T16:18:17.476Z,31.20
2022-12-18T16:20:46.786Z,10.30
2022-12-18T16:23:14.570Z,12.95
2022-12-18T16:25:42.413Z,26.88
2022-12-18T16:28:13.088Z,11.68
2022-12-18T16:30:40.660Z,16.05
2022-12-18T16:33:10.607Z,12.30
2022-12-18T16:35:38.357Z,11.57
2022-12-18T16:38:07.534Z,16.73
2022-12-18T16:40:35.134Z,10.57
2022-12-18T16:43:03.027Z,10.02
2022-12-18T16:45:31.018Z,9.63
2022-12-18T16:47:58.685Z,9.20
2022-12-18T16:50:26.622Z,11.77
2022-12-18T16:52:54.232Z,12.13
2022-12-18T16:55:23.236Z,11.18
2022-12-18T16:57:51.130Z,8.93
2022-12-18T17:00:19.046Z,9.95
2022-12-18T17:02:46.770Z,9.68
2022-12-18T17:05:15.246Z,8.70
2022-12-18T17:07:42.845Z,8.43
2022-12-18T17:10:10.908Z,8.52
2022-12-18T17:12:41.718Z,9.55
2022-12-18T17:15:11.328Z,10.23
2022-12-18T17:17:39.077Z,9.25
2022-12-18T17:20:07.938Z,10.25
2022-12-18T17:22:36.265Z,9.50
2022-12-18T17:25:05.100Z,9.82
2022-12-18T17:27:33.060Z,9.85
2022-12-18T17:30:02.072Z,9.35
2022-12-18T17:32:30.131Z,11.52
2022-12-18T17:35:01.466Z,14.65
2022-12-18T17:37:32.056Z,8.65
2022-12-18T17:40:00.522Z,8.77
2022-12-18T17:42:28.276Z,11.43
2022-12-18T17:44:55.898Z,9.50
2022-12-18T17:47:25.318Z,8.27
2022-12-18T17:49:53.085Z,11.38
2022-12-18T17:52:22.461Z,9.55
2022-12-18T17:54:50.295Z,8.60
2022-12-18T17:57:17.881Z,8.00
2022-12-18T17:59:45.787Z,7.75
2022-12-18T18:02:13.766Z,9.98
2022-12-18T18:04:43.504Z,8.50
2022-12-18T18:07:11.351Z,7.55
2022-12-18T18:09:39.952Z,8.18
2022-12-18T18:12:08.870Z,9.38
2022-12-18T18:14:37.197Z,8.27
2022-12-18T18:17:05.768Z,8.38
2022-12-18T18:19:33.955Z,8.50
2022-12-18T18:22:03.636Z,7.97
2022-12-18T18:24:33.436Z,7.80
2022-12-18T18:27:00.985Z,11.65
2022-12-18T18:29:29.354Z,8.55
2022-12-18T18:31:57.577Z,9.38
2022-12-18T18:34:27.823Z,8.52
2022-12-18T18:36:55.614Z,11.98
2022-12-18T18:39:25.254Z,9.88
2022-12-18T18:41:53.342Z,10.52
2022-12-18T18:44:25.784Z,17.25
2022-12-18T18:46:55.184Z,10.75
2022-12-18T18:49:23.536Z,9.75
2022-12-18T18:51:51.444Z,10.88
2022-12-18T18:54:19.668Z,11.77
2022-12-18T18:57:19.478Z,8.45
2022-12-18T18:59:37.475Z,9.07
2022-12-18T19:02:09.287Z,17.85
2022-12-18T19:04:40.908Z,20.10
2022-12-18T19:07:23.844Z,9.50
2022-12-18T19:10:04.838Z,23.08
2022-12-18T19:12:35.296Z,12.98
2022-12-18T19:15:06.818Z,13.00
2022-12-18T19:17:34.682Z,8.27
2022-12-18T19:20:02.984Z,15.60
2022-12-18T19:22:32.028Z,8.02
2022-12-18T19:25:00.006Z,7.35
2022-12-18T19:27:27.670Z,7.93
2022-12-18T19:29:56.967Z,6.22
2022-12-18T19:32:24.847Z,10.30
2022-12-18T19:34:53.459Z,11.80
2022-12-18T19:37:24.725Z,8.13
2022-12-18T19:40:00.155Z,8.88
2022-12-18T19:42:35.363Z,12.15
2022-12-18T19:45:05.905Z,7.43
2022-12-18T19:47:33.711Z,7.00
2022-12-18T19:50:01.376Z,9.93
2022-12-18T19:52:29.409Z,6.97
2022-12-18T19:54:57.160Z,11.30
2022-12-18T19:57:24.788Z,7.55
2022-12-18T19:59:52.721Z,6.38
2022-12-18T20:02:22.116Z,16.35
2022-12-18T20:04:52.986Z,17.92
2022-12-18T20:07:21.503Z,13.13
2022-12-18T20:09:51.650Z,12.50
2022-12-18T20:12:25.340Z,7.88
2022-12-18T20:14:55.375Z,21.92
2022-12-18T20:17:24.347Z,19.50
2022-12-18T20:19:52.623Z,38.97
2022-12-18T20:22:20.402Z,16.02
2022-12-18T20:24:48.002Z,27.15
2022-12-18T20:27:19.581Z,20.73
2022-12-18T20:29:47.304Z,12.75
2022-12-18T20:32:15.109Z,10.60
2022-12-18T20:34:44.682Z,9.27
2022-12-18T20:37:12.842Z,8.75
2022-12-18T20:39:41.041Z,10.77
2022-12-18T20:42:09.713Z,8.05
2022-12-18T20:44:37.954Z,13.52
2022-12-18T20:47:08.659Z,12.30
2022-12-18T20:49:37.290Z,11.40
2022-12-18T20:52:11.108Z,16.35
2022-12-18T20:54:39.584Z,24.73
2022-12-18T20:57:07.154Z,12.27
2022-12-18T20:59:34.746Z,14.98
2022-12-18T21:02:02.867Z,43.08
2022-12-18T21:04:30.708Z,27.95
2022-12-18T21:07:02.692Z,20.13
2022-12-18T21:09:37.100Z,21.55
2022-12-18T21:12:13.203Z,15.57
2022-12-18T21:14:43.065Z,8.90
2022-12-18T21:17:11.070Z,14.00
2022-12-18T21:19:38.796Z,17.15
2022-12-18T21:22:06.775Z,8.88
2022-12-18T21:24:35.957Z,9.02
2022-12-18T21:27:03.576Z,21.63
2022-12-18T21:29:31.777Z,16.90
2022-12-18T21:31:59.582Z,17.15
2022-12-18T21:34:29.806Z,14.23
2022-12-18T21:36:59.505Z,14.63
2022-12-18T21:39:29.799Z,14.55
2022-12-18T21:41:59.648Z,15.30
2022-12-18T21:44:27.310Z,25.05
2022-12-18T21:46:58.376Z,13.05
2022-12-18T21:49:31.826Z,10.05
2022-12-18T21:52:01.193Z,9.05
2022-12-18T21:54:29.452Z,10.02
2022-12-18T21:57:00.304Z,9.63
2022-12-18T21:59:30.253Z,9.95
2022-12-18T22:01:59.999Z,10.63
2022-12-18T22:04:31.389Z,10.07
2022-12-18T22:07:00.631Z,9.85
2022-12-18T22:09:28.282Z,9.52
2022-12-18T22:11:55.877Z,9.32
2022-12-18T22:14:25.431Z,9.35
2022-12-18T22:16:53.205Z,9.30
2022-12-18T22:19:21.029Z,11.95
2022-12-18T22:21:49.924Z,9.60
2022-12-18T22:24:19.702Z,11.63
2022-12-18T22:26:47.777Z,17.45
2022-12-18T22:29:17.893Z,11.55
2022-12-18T22:31:47.225Z,10.50
2022-12-18T22:34:14.914Z,11.35
2022-12-18T22:36:45.095Z,9.82
2022-12-18T22:39:15.436Z,12.07
2022-12-18T22:41:43.467Z,12.13
2022-12-18T22:44:11.302Z,12.57
2022-12-18T22:49:17.122Z,10.30
2022-12-18T22:51:45.079Z,12.15
2022-12-18T22:54:13.170Z,10.85
2022-12-18T22:56:41.093Z,13.40
2022-12-18T22:59:15.653Z,10.45
2022-12-18T23:01:44.879Z,13.00
2022-12-18T23:04:16.119Z,11.00
2022-12-18T23:06:45.109Z,11.25
2022-12-18T23:09:18.046Z,11.52
2022-12-18T23:11:46.499Z,10.85
2022-12-18T23:14:15.604Z,10.10
2022-12-18T23:16:43.699Z,12.05
2022-12-18T23:19:15.495Z,12.93
2022-12-18T23:21:43.073Z,16.20
2022-12-18T23:24:10.750Z,16.60
2022-12-18T23:26:39.148Z,21.05
2022-12-18T23:29:07.119Z,18.63
2022-12-18T23:31:36.438Z,25.33
2022-12-18T23:34:05.657Z,51.25
2022-12-18T23:36:35.870Z,32.20
2022-12-18T23:39:25.407Z,26.48
2022-12-18T23:41:56.910Z,19.17
2022-12-18T23:44:25.043Z,67.80
